sensor_id;sensor_type;location;lat;lon;timestamp;P1;durP1;ratioP1;P2;durP2;ratioP2
3309;SDS011;1667;53.238;10.394;2023-05-10T00:02:30;3.27;;;2.87;;
3309;SDS011;1667;53.238;10.394;2023-05-10T00:07:29;2.97;;;2.60;;
3309;SDS011;1667;53.238;10.394;2023-05-10T00:12:27;3.40;;;2.90;;
3309;SDS011;1667;53.238;10.394;2023-05-10T00:17:27;3.10;;;2.80;;
3309;SDS011;1667;53.238;10.394;2023-05-10T00:22:26;3.77;;;3.30;;
3309;SDS011;1667;53.238;10.394;2023-05-10T00:27:24;3.50;;;3.20;;
3309;SDS011;1667;53.238;10.394;2023-05-10T00:32:23;5.40;;;3.60;;
3309;SDS011;1667;53.238;10.394;2023-05-10T00:37:23;4.03;;;3.63;;
3309;SDS011;1667;53.238;10.394;2023-05-10T00:42:22;4.33;;;3.60;;
3309;SDS011;1667;53.238;10.394;2023-05-10T00:47:22;4.17;;;3.77;;
3309;SDS011;1667;53.238;10.394;2023-05-10T00:52:21;4.47;;;3.20;;
3309;SDS011;1667;53.238;10.394;2023-05-10T00:57:22;5.73;;;3.30;;
3309;SDS011;1667;53.238;10.394;2023-05-10T01:02:21;5.10;;;4.00;;
3309;SDS011;1667;53.238;10.394;2023-05-10T01:07:20;4.20;;;3.20;;
3309;SDS011;1667;53.238;10.394;2023-05-10T01:12:20;3.33;;;3.00;;
3309;SDS011;1667;53.238;10.394;2023-05-10T01:17:19;4.20;;;3.90;;
3309;SDS011;1667;53.238;10.394;2023-05-10T01:22:30;4.73;;;3.30;;
3309;SDS011;1667;53.238;10.394;2023-05-10T01:27:57;4.97;;;3.43;;
3309;SDS011;1667;53.238;10.394;2023-05-10T01:33:16;3.30;;;3.10;;
3309;SDS011;1667;53.238;10.394;2023-05-10T01:38:19;4.73;;;3.97;;
3309;SDS011;1667;53.238;10.394;2023-05-10T01:43:22;4.63;;;4.03;;
3309;SDS011;1667;53.238;10.394;2023-05-10T01:48:28;4.50;;;4.10;;
3309;SDS011;1667;53.238;10.394;2023-05-10T01:53:29;5.27;;;3.53;;
3309;SDS011;1667;53.238;10.394;2023-05-10T01:58:30;3.30;;;3.03;;
3309;SDS011;1667;53.238;10.394;2023-05-10T02:03:33;3.67;;;3.37;;
3309;SDS011;1667;53.238;10.394;2023-05-10T02:08:34;3.00;;;2.73;;
3309;SDS011;1667;53.238;10.394;2023-05-10T02:13:34;4.03;;;3.40;;
3309;SDS011;1667;53.238;10.394;2023-05-10T02:18:37;4.67;;;4.17;;
3309;SDS011;1667;53.238;10.394;2023-05-10T02:23:38;4.20;;;3.00;;
3309;SDS011;1667;53.238;10.394;2023-05-10T02:28:38;3.87;;;3.47;;
3309;SDS011;1667;53.238;10.394;2023-05-10T02:33:39;3.60;;;3.30;;
3309;SDS011;1667;53.238;10.394;2023-05-10T02:38:38;4.13;;;3.73;;
3309;SDS011;1667;53.238;10.394;2023-05-10T02:43:38;3.23;;;3.00;;
3309;SDS011;1667;53.238;10.394;2023-05-10T02:48:40;4.67;;;4.27;;
3309;SDS011;1667;53.238;10.394;2023-05-10T02:53:40;3.23;;;2.93;;
3309;SDS011;1667;53.238;10.394;2023-05-10T02:58:41;3.67;;;3.30;;
3309;SDS011;1667;53.238;10.394;2023-05-10T03:03:41;3.37;;;3.07;;
3309;SDS011;1667;53.238;10.394;2023-05-10T03:08:40;4.33;;;3.60;;
3309;SDS011;1667;53.238;10.394;2023-05-10T03:13:43;4.73;;;3.50;;
3309;SDS011;1667;53.238;10.394;2023-05-10T03:18:50;7.10;;;3.87;;
3309;SDS011;1667;53.238;10.394;2023-05-10T03:23:54;7.80;;;3.60;;
3309;SDS011;1667;53.238;10.394;2023-05-10T03:29:00;3.73;;;3.40;;
3309;SDS011;1667;53.238;10.394;2023-05-10T03:34:02;5.57;;;3.60;;
3309;SDS011;1667;53.238;10.394;2023-05-10T03:39:01;3.50;;;3.20;;
3309;SDS011;1667;53.238;10.394;2023-05-10T03:44:00;4.30;;;2.87;;
3309;SDS011;1667;53.238;10.394;2023-05-10T03:48:59;7.73;;;3.87;;
3309;SDS011;1667;53.238;10.394;2023-05-10T03:53:59;4.07;;;3.67;;
3309;SDS011;1667;53.238;10.394;2023-05-10T03:58:58;4.00;;;3.60;;
3309;SDS011;1667;53.238;10.394;2023-05-10T04:03:59;4.90;;;4.33;;
3309;SDS011;1667;53.238;10.394;2023-05-10T04:09:02;3.87;;;3.50;;
3309;SDS011;1667;53.238;10.394;2023-05-10T04:14:01;4.40;;;3.77;;
3309;SDS011;1667;53.238;10.394;2023-05-10T04:18:59;5.60;;;2.90;;
3309;SDS011;1667;53.238;10.394;2023-05-10T04:23:58;3.90;;;3.47;;
3309;SDS011;1667;53.238;10.394;2023-05-10T04:28:57;3.40;;;3.07;;
3309;SDS011;1667;53.238;10.394;2023-05-10T04:33:56;4.20;;;3.50;;
3309;SDS011;1667;53.238;10.394;2023-05-10T04:38:54;3.90;;;3.60;;
3309;SDS011;1667;53.238;10.394;2023-05-10T04:43:53;5.23;;;3.90;;
3309;SDS011;1667;53.238;10.394;2023-05-10T04:48:53;3.83;;;3.43;;
3309;SDS011;1667;53.238;10.394;2023-05-10T04:53:51;4.00;;;3.20;;
3309;SDS011;1667;53.238;10.394;2023-05-10T04:59:01;3.70;;;3.03;;
3309;SDS011;1667;53.238;10.394;2023-05-10T05:04:01;6.83;;;4.30;;
3309;SDS011;1667;53.238;10.394;2023-05-10T05:09:00;4.20;;;3.43;;
3309;SDS011;1667;53.238;10.394;2023-05-10T05:13:59;3.40;;;2.73;;
3309;SDS011;1667;53.238;10.394;2023-05-10T05:18:57;3.70;;;3.20;;
3309;SDS011;1667;53.238;10.394;2023-05-10T05:23:58;3.80;;;3.40;;
3309;SDS011;1667;53.238;10.394;2023-05-10T05:28:57;4.10;;;3.20;;
3309;SDS011;1667;53.238;10.394;2023-05-10T05:33:56;4.10;;;3.03;;
3309;SDS011;1667;53.238;10.394;2023-05-10T05:38:54;4.10;;;3.00;;
3309;SDS011;1667;53.238;10.394;2023-05-10T05:43:54;5.40;;;3.53;;
3309;SDS011;1667;53.238;10.394;2023-05-10T05:48:53;4.17;;;3.73;;
3309;SDS011;1667;53.238;10.394;2023-05-10T05:53:51;3.60;;;3.30;;
3309;SDS011;1667;53.238;10.394;2023-05-10T05:58:50;5.00;;;3.40;;
3309;SDS011;1667;53.238;10.394;2023-05-10T06:03:50;3.93;;;3.30;;
3309;SDS011;1667;53.238;10.394;2023-05-10T06:08:49;2.80;;;2.53;;
3309;SDS011;1667;53.238;10.394;2023-05-10T06:13:48;4.47;;;3.60;;
3309;SDS011;1667;53.238;10.394;2023-05-10T06:18:46;3.57;;;3.27;;
3309;SDS011;1667;53.238;10.394;2023-05-10T06:23:46;3.93;;;3.53;;
3309;SDS011;1667;53.238;10.394;2023-05-10T06:28:45;4.27;;;3.77;;
3309;SDS011;1667;53.238;10.394;2023-05-10T06:33:43;2.90;;;2.67;;
3309;SDS011;1667;53.238;10.394;2023-05-10T06:38:42;4.17;;;3.67;;
3309;SDS011;1667;53.238;10.394;2023-05-10T06:43:41;6.03;;;3.47;;
3309;SDS011;1667;53.238;10.394;2023-05-10T06:48:40;3.20;;;3.00;;
3309;SDS011;1667;53.238;10.394;2023-05-10T06:53:38;3.60;;;2.97;;
3309;SDS011;1667;53.238;10.394;2023-05-10T06:58:36;4.23;;;2.80;;
3309;SDS011;1667;53.238;10.394;2023-05-10T07:03:36;4.87;;;3.70;;
3309;SDS011;1667;53.238;10.394;2023-05-10T07:08:34;6.90;;;3.43;;
3309;SDS011;1667;53.238;10.394;2023-05-10T07:13:33;3.87;;;3.03;;
3309;SDS011;1667;53.238;10.394;2023-05-10T07:18:32;2.80;;;2.60;;
3309;SDS011;1667;53.238;10.394;2023-05-10T07:23:32;4.13;;;3.73;;
3309;SDS011;1667;53.238;10.394;2023-05-10T07:28:31;3.20;;;2.90;;
3309;SDS011;1667;53.238;10.394;2023-05-10T07:33:30;5.40;;;4.03;;
3309;SDS011;1667;53.238;10.394;2023-05-10T07:38:28;3.57;;;3.27;;
3309;SDS011;1667;53.238;10.394;2023-05-10T07:43:28;3.90;;;3.60;;
3309;SDS011;1667;53.238;10.394;2023-05-10T07:48:27;5.60;;;3.43;;
3309;SDS011;1667;53.238;10.394;2023-05-10T07:53:25;3.30;;;3.00;;
3309;SDS011;1667;53.238;10.394;2023-05-10T07:58:25;4.67;;;3.70;;
3309;SDS011;1667;53.238;10.394;2023-05-10T08:03:25;3.50;;;3.20;;
3309;SDS011;1667;53.238;10.394;2023-05-10T08:08:23;4.77;;;3.60;;
3309;SDS011;1667;53.238;10.394;2023-05-10T08:13:22;3.90;;;3.57;;
3309;SDS011;1667;53.238;10.394;2023-05-10T08:18:20;3.60;;;2.77;;
3309;SDS011;1667;53.238;10.394;2023-05-10T08:23:20;4.40;;;3.37;;
3309;SDS011;1667;53.238;10.394;2023-05-10T08:28:19;4.50;;;4.13;;
3309;SDS011;1667;53.238;10.394;2023-05-10T08:33:17;4.20;;;3.60;;
3309;SDS011;1667;53.238;10.394;2023-05-10T08:38:17;3.43;;;3.23;;
3309;SDS011;1667;53.238;10.394;2023-05-10T08:43:17;5.17;;;3.50;;
3309;SDS011;1667;53.238;10.394;2023-05-10T08:48:17;5.03;;;3.77;;
3309;SDS011;1667;53.238;10.394;2023-05-10T08:53:15;4.23;;;3.00;;
3309;SDS011;1667;53.238;10.394;2023-05-10T08:58:14;3.70;;;3.40;;
3309;SDS011;1667;53.238;10.394;2023-05-10T09:10:04;4.47;;;4.07;;
3309;SDS011;1667;53.238;10.394;2023-05-10T09:15:06;5.90;;;3.90;;
3309;SDS011;1667;53.238;10.394;2023-05-10T09:20:06;4.77;;;4.27;;
3309;SDS011;1667;53.238;10.394;2023-05-10T09:25:06;4.10;;;3.80;;
3309;SDS011;1667;53.238;10.394;2023-05-10T09:30:07;3.63;;;3.33;;
3309;SDS011;1667;53.238;10.394;2023-05-10T09:35:10;4.33;;;3.80;;
3309;SDS011;1667;53.238;10.394;2023-05-10T09:40:11;3.00;;;2.80;;
3309;SDS011;1667;53.238;10.394;2023-05-10T09:45:12;4.03;;;3.70;;
3309;SDS011;1667;53.238;10.394;2023-05-10T09:50:10;6.43;;;4.20;;
3309;SDS011;1667;53.238;10.394;2023-05-10T09:55:09;5.80;;;4.60;;
3309;SDS011;1667;53.238;10.394;2023-05-10T10:00:07;6.23;;;5.23;;
3309;SDS011;1667;53.238;10.394;2023-05-10T10:05:11;3.83;;;3.13;;
3309;SDS011;1667;53.238;10.394;2023-05-10T10:10:11;4.20;;;3.80;;
3309;SDS011;1667;53.238;10.394;2023-05-10T10:15:10;3.37;;;3.17;;
3309;SDS011;1667;53.238;10.394;2023-05-10T10:20:13;5.33;;;4.83;;
3309;SDS011;1667;53.238;10.394;2023-05-10T10:25:14;3.90;;;3.60;;
3309;SDS011;1667;53.238;10.394;2023-05-10T10:30:17;4.23;;;3.80;;
3309;SDS011;1667;53.238;10.394;2023-05-10T10:35:23;6.33;;;4.70;;
3309;SDS011;1667;53.238;10.394;2023-05-10T10:40:22;4.47;;;4.07;;
3309;SDS011;1667;53.238;10.394;2023-05-10T10:45:28;13.03;;;5.07;;
3309;SDS011;1667;53.238;10.394;2023-05-10T10:50:28;5.67;;;4.87;;
3309;SDS011;1667;53.238;10.394;2023-05-10T10:55:27;6.10;;;4.70;;
3309;SDS011;1667;53.238;10.394;2023-05-10T11:00:27;4.97;;;4.47;;
3309;SDS011;1667;53.238;10.394;2023-05-10T11:05:36;4.87;;;3.70;;
3309;SDS011;1667;53.238;10.394;2023-05-10T11:10:36;5.80;;;5.00;;
3309;SDS011;1667;53.238;10.394;2023-05-10T11:15:35;5.23;;;4.73;;
3309;SDS011;1667;53.238;10.394;2023-05-10T11:20:39;4.33;;;4.00;;
3309;SDS011;1667;53.238;10.394;2023-05-10T11:25:40;6.03;;;5.00;;
3309;SDS011;1667;53.238;10.394;2023-05-10T11:30:41;4.93;;;4.43;;
3309;SDS011;1667;53.238;10.394;2023-05-10T11:35:43;5.17;;;4.77;;
3309;SDS011;1667;53.238;10.394;2023-05-10T11:40:41;8.83;;;6.30;;
3309;SDS011;1667;53.238;10.394;2023-05-10T11:45:41;8.50;;;5.90;;
3309;SDS011;1667;53.238;10.394;2023-05-10T11:50:40;5.63;;;3.63;;
3309;SDS011;1667;53.238;10.394;2023-05-10T11:55:39;5.10;;;4.60;;
3309;SDS011;1667;53.238;10.394;2023-05-10T12:00:38;5.07;;;4.43;;
3309;SDS011;1667;53.238;10.394;2023-05-10T12:05:37;6.17;;;4.43;;
3309;SDS011;1667;53.238;10.394;2023-05-10T12:10:39;6.70;;;5.10;;
3309;SDS011;1667;53.238;10.394;2023-05-10T12:15:38;9.30;;;8.00;;
3309;SDS011;1667;53.238;10.394;2023-05-10T12:20:37;5.67;;;4.93;;
3309;SDS011;1667;53.238;10.394;2023-05-10T12:25:36;3.70;;;3.40;;
3309;SDS011;1667;53.238;10.394;2023-05-10T12:30:37;4.90;;;4.23;;
3309;SDS011;1667;53.238;10.394;2023-05-10T12:35:46;4.57;;;4.17;;
3309;SDS011;1667;53.238;10.394;2023-05-10T12:40:45;3.27;;;2.90;;
3309;SDS011;1667;53.238;10.394;2023-05-10T12:45:46;6.00;;;5.40;;
3309;SDS011;1667;53.238;10.394;2023-05-10T12:50:45;3.93;;;3.63;;
3309;SDS011;1667;53.238;10.394;2023-05-10T12:55:44;5.43;;;4.93;;
3309;SDS011;1667;53.238;10.394;2023-05-10T13:00:42;4.40;;;4.00;;
3309;SDS011;1667;53.238;10.394;2023-05-10T13:05:43;3.60;;;3.30;;
3309;SDS011;1667;53.238;10.394;2023-05-10T13:10:41;4.90;;;4.40;;
3309;SDS011;1667;53.238;10.394;2023-05-10T13:15:39;3.80;;;3.50;;
3309;SDS011;1667;53.238;10.394;2023-05-10T13:20:38;4.87;;;2.67;;
3309;SDS011;1667;53.238;10.394;2023-05-10T13:25:37;8.50;;;6.73;;
3309;SDS011;1667;53.238;10.394;2023-05-10T13:30:36;2.70;;;2.50;;
3309;SDS011;1667;53.238;10.394;2023-05-10T13:35:34;3.77;;;3.47;;
3309;SDS011;1667;53.238;10.394;2023-05-10T13:40:32;6.50;;;5.90;;
3309;SDS011;1667;53.238;10.394;2023-05-10T13:45:32;4.37;;;3.80;;
3309;SDS011;1667;53.238;10.394;2023-05-10T13:50:31;6.93;;;5.50;;
3309;SDS011;1667;53.238;10.394;2023-05-10T13:55:29;2.97;;;2.77;;
3309;SDS011;1667;53.238;10.394;2023-05-10T14:00:28;3.40;;;2.77;;
3309;SDS011;1667;53.238;10.394;2023-05-10T14:05:27;3.63;;;3.33;;
3309;SDS011;1667;53.238;10.394;2023-05-10T14:10:26;3.00;;;2.80;;
3309;SDS011;1667;53.238;10.394;2023-05-10T14:15:25;3.87;;;3.57;;
3309;SDS011;1667;53.238;10.394;2023-05-10T14:20:23;2.70;;;2.50;;
3309;SDS011;1667;53.238;10.394;2023-05-10T14:25:24;3.07;;;2.77;;
3309;SDS011;1667;53.238;10.394;2023-05-10T14:30:22;3.13;;;2.90;;
3309;SDS011;1667;53.238;10.394;2023-05-10T14:35:21;2.37;;;2.23;;
3309;SDS011;1667;53.238;10.394;2023-05-10T14:40:20;3.23;;;2.97;;
3309;SDS011;1667;53.238;10.394;2023-05-10T14:45:20;2.60;;;2.40;;
3309;SDS011;1667;53.238;10.394;2023-05-10T14:50:19;2.00;;;1.90;;
3309;SDS011;1667;53.238;10.394;2023-05-10T14:55:32;2.93;;;2.73;;
3309;SDS011;1667;53.238;10.394;2023-05-10T15:00:32;1.90;;;1.80;;
3309;SDS011;1667;53.238;10.394;2023-05-10T15:05:31;2.20;;;2.10;;
3309;SDS011;1667;53.238;10.394;2023-05-10T15:10:30;2.70;;;2.50;;
3309;SDS011;1667;53.238;10.394;2023-05-10T15:15:30;2.20;;;2.10;;
3309;SDS011;1667;53.238;10.394;2023-05-10T15:20:30;1.73;;;1.63;;
3309;SDS011;1667;53.238;10.394;2023-05-10T15:25:28;3.17;;;2.97;;
3309;SDS011;1667;53.238;10.394;2023-05-10T15:30:26;2.60;;;2.40;;
3309;SDS011;1667;53.238;10.394;2023-05-10T15:35:25;3.00;;;1.27;;
3309;SDS011;1667;53.238;10.394;2023-05-10T15:40:25;1.77;;;1.67;;
3309;SDS011;1667;53.238;10.394;2023-05-10T15:45:24;2.27;;;2.17;;
3309;SDS011;1667;53.238;10.394;2023-05-10T15:50:23;2.30;;;2.10;;
3309;SDS011;1667;53.238;10.394;2023-05-10T15:55:22;1.90;;;1.80;;
3309;SDS011;1667;53.238;10.394;2023-05-10T16:00:21;1.77;;;1.67;;
3309;SDS011;1667;53.238;10.394;2023-05-10T16:05:20;2.50;;;2.30;;
3309;SDS011;1667;53.238;10.394;2023-05-10T16:10:19;2.50;;;2.30;;
3309;SDS011;1667;53.238;10.394;2023-05-10T16:15:17;2.60;;;2.40;;
3309;SDS011;1667;53.238;10.394;2023-05-10T16:20:18;2.33;;;2.23;;
3309;SDS011;1667;53.238;10.394;2023-05-10T16:25:17;1.80;;;1.70;;
3309;SDS011;1667;53.238;10.394;2023-05-10T16:30:15;1.50;;;1.40;;
3309;SDS011;1667;53.238;10.394;2023-05-10T16:35:15;1.80;;;1.70;;
3309;SDS011;1667;53.238;10.394;2023-05-10T16:40:15;2.30;;;2.10;;
3309;SDS011;1667;53.238;10.394;2023-05-10T16:45:14;1.83;;;1.40;;
3309;SDS011;1667;53.238;10.394;2023-05-10T16:50:13;1.80;;;1.70;;
3309;SDS011;1667;53.238;10.394;2023-05-10T16:55:11;1.53;;;1.40;;
3309;SDS011;1667;53.238;10.394;2023-05-10T17:00:12;1.80;;;1.70;;
3309;SDS011;1667;53.238;10.394;2023-05-10T17:05:11;2.00;;;1.53;;
3309;SDS011;1667;53.238;10.394;2023-05-10T17:10:10;1.73;;;1.63;;
3309;SDS011;1667;53.238;10.394;2023-05-10T17:15:09;2.63;;;2.50;;
3309;SDS011;1667;53.238;10.394;2023-05-10T17:20:12;1.83;;;1.73;;
3309;SDS011;1667;53.238;10.394;2023-05-10T17:25:10;2.23;;;2.03;;
3309;SDS011;1667;53.238;10.394;2023-05-10T17:30:09;2.90;;;1.97;;
3309;SDS011;1667;53.238;10.394;2023-05-10T17:35:10;1.67;;;1.57;;
3309;SDS011;1667;53.238;10.394;2023-05-10T17:40:08;3.00;;;1.93;;
3309;SDS011;1667;53.238;10.394;2023-05-10T17:45:08;2.00;;;1.87;;
3309;SDS011;1667;53.238;10.394;2023-05-10T17:50:09;4.00;;;2.50;;
3309;SDS011;1667;53.238;10.394;2023-05-10T17:55:08;2.10;;;2.00;;
3309;SDS011;1667;53.238;10.394;2023-05-10T18:00:08;3.10;;;2.13;;
3309;SDS011;1667;53.238;10.394;2023-05-10T18:05:09;2.63;;;2.30;;
3309;SDS011;1667;53.238;10.394;2023-05-10T18:10:09;1.50;;;1.40;;
3309;SDS011;1667;53.238;10.394;2023-05-10T18:15:08;3.03;;;2.53;;
3309;SDS011;1667;53.238;10.394;2023-05-10T18:20:09;2.10;;;2.00;;
3309;SDS011;1667;53.238;10.394;2023-05-10T18:25:08;1.70;;;1.60;;
3309;SDS011;1667;53.238;10.394;2023-05-10T18:30:07;2.87;;;2.57;;
3309;SDS011;1667;53.238;10.394;2023-05-10T18:35:09;1.97;;;1.80;;
3309;SDS011;1667;53.238;10.394;2023-05-10T18:40:08;2.40;;;1.50;;
3309;SDS011;1667;53.238;10.394;2023-05-10T18:45:10;1.77;;;1.67;;
3309;SDS011;1667;53.238;10.394;2023-05-10T18:50:11;1.67;;;1.57;;
3309;SDS011;1667;53.238;10.394;2023-05-10T18:55:09;2.30;;;2.20;;
3309;SDS011;1667;53.238;10.394;2023-05-10T19:00:09;1.67;;;1.57;;
3309;SDS011;1667;53.238;10.394;2023-05-10T19:05:09;1.80;;;1.70;;
3309;SDS011;1667;53.238;10.394;2023-05-10T19:10:09;2.30;;;1.83;;
3309;SDS011;1667;53.238;10.394;2023-05-10T19:15:09;1.23;;;1.20;;
3309;SDS011;1667;53.238;10.394;2023-05-10T19:20:08;2.40;;;2.20;;
3309;SDS011;1667;53.238;10.394;2023-05-10T19:25:09;2.80;;;2.60;;
3309;SDS011;1667;53.238;10.394;2023-05-10T19:30:08;3.50;;;3.30;;
3309;SDS011;1667;53.238;10.394;2023-05-10T19:35:08;1.70;;;1.60;;
3309;SDS011;1667;53.238;10.394;2023-05-10T19:40:12;1.60;;;1.50;;
3309;SDS011;1667;53.238;10.394;2023-05-10T19:45:13;4.17;;;3.77;;
3309;SDS011;1667;53.238;10.394;2023-05-10T19:50:12;4.03;;;3.73;;
3309;SDS011;1667;53.238;10.394;2023-05-10T19:55:14;3.70;;;3.40;;
3309;SDS011;1667;53.238;10.394;2023-05-10T20:00:23;4.90;;;4.37;;
3309;SDS011;1667;53.238;10.394;2023-05-10T20:05:23;4.10;;;3.70;;
3309;SDS011;1667;53.238;10.394;2023-05-10T20:10:23;3.80;;;3.50;;
3309;SDS011;1667;53.238;10.394;2023-05-10T20:15:22;2.93;;;2.70;;
3309;SDS011;1667;53.238;10.394;2023-05-10T20:20:21;3.60;;;3.30;;
3309;SDS011;1667;53.238;10.394;2023-05-10T20:25:20;2.00;;;1.90;;
3309;SDS011;1667;53.238;10.394;2023-05-10T20:30:19;3.40;;;3.10;;
3309;SDS011;1667;53.238;10.394;2023-05-10T20:35:18;2.40;;;2.20;;
3309;SDS011;1667;53.238;10.394;2023-05-10T20:40:16;3.10;;;2.90;;
3309;SDS011;1667;53.238;10.394;2023-05-10T20:45:15;2.77;;;2.57;;
3309;SDS011;1667;53.238;10.394;2023-05-10T20:50:15;1.80;;;1.70;;
3309;SDS011;1667;53.238;10.394;2023-05-10T20:55:14;2.00;;;1.90;;
3309;SDS011;1667;53.238;10.394;2023-05-10T21:00:12;1.93;;;1.83;;
3309;SDS011;1667;53.238;10.394;2023-05-10T21:05:12;2.60;;;2.40;;
3309;SDS011;1667;53.238;10.394;2023-05-10T21:10:12;4.30;;;3.90;;
3309;SDS011;1667;53.238;10.394;2023-05-10T21:15:10;2.77;;;1.60;;
3309;SDS011;1667;53.238;10.394;2023-05-10T21:20:09;2.07;;;1.97;;
3309;SDS011;1667;53.238;10.394;2023-05-10T21:25:09;4.37;;;3.97;;
3309;SDS011;1667;53.238;10.394;2023-05-10T21:30:09;4.03;;;3.80;;
3309;SDS011;1667;53.238;10.394;2023-05-10T21:35:08;2.73;;;2.53;;
3309;SDS011;1667;53.238;10.394;2023-05-10T21:40:07;4.40;;;4.10;;
3309;SDS011;1667;53.238;10.394;2023-05-10T21:45:07;6.53;;;5.93;;
3309;SDS011;1667;53.238;10.394;2023-05-10T21:50:07;6.77;;;6.17;;
3309;SDS011;1667;53.238;10.394;2023-05-10T21:55:07;3.03;;;2.83;;
3309;SDS011;1667;53.238;10.394;2023-05-10T22:00:07;6.23;;;5.67;;
3309;SDS011;1667;53.238;10.394;2023-05-10T22:05:09;2.73;;;2.53;;
3309;SDS011;1667;53.238;10.394;2023-05-10T22:10:07;5.07;;;4.60;;
3309;SDS011;1667;53.238;10.394;2023-05-10T22:15:07;5.10;;;4.60;;
3309;SDS011;1667;53.238;10.394;2023-05-10T22:20:07;7.23;;;6.20;;
3309;SDS011;1667;53.238;10.394;2023-05-10T22:25:07;6.97;;;6.27;;
3309;SDS011;1667;53.238;10.394;2023-05-10T22:30:06;8.17;;;6.77;;
3309;SDS011;1667;53.238;10.394;2023-05-10T22:35:06;9.23;;;7.77;;
3309;SDS011;1667;53.238;10.394;2023-05-10T22:40:07;10.70;;;8.10;;
3309;SDS011;1667;53.238;10.394;2023-05-10T22:45:07;9.47;;;7.50;;
3309;SDS011;1667;53.238;10.394;2023-05-10T22:50:07;9.23;;;8.13;;
3309;SDS011;1667;53.238;10.394;2023-05-10T22:55:08;10.70;;;8.87;;
3309;SDS011;1667;53.238;10.394;2023-05-10T23:00:07;11.23;;;8.97;;
3309;SDS011;1667;53.238;10.394;2023-05-10T23:05:06;12.37;;;8.60;;
3309;SDS011;1667;53.238;10.394;2023-05-10T23:10:07;12.97;;;9.50;;
3309;SDS011;1667;53.238;10.394;2023-05-10T23:15:06;11.50;;;8.90;;
3309;SDS011;1667;53.238;10.394;2023-05-10T23:20:06;11.70;;;8.80;;
3309;SDS011;1667;53.238;10.394;2023-05-10T23:25:07;10.27;;;7.33;;
3309;SDS011;1667;53.238;10.394;2023-05-10T23:30:07;15.70;;;9.43;;
3309;SDS011;1667;53.238;10.394;2023-05-10T23:35:07;13.53;;;9.80;;
3309;SDS011;1667;53.238;10.394;2023-05-10T23:40:08;11.77;;;9.40;;
3309;SDS011;1667;53.238;10.394;2023-05-10T23:45:07;14.10;;;9.90;;
3309;SDS011;1667;53.238;10.394;2023-05-10T23:50:06;14.03;;;10.40;;
3309;SDS011;1667;53.238;10.394;2023-05-10T23:55:06;11.67;;;8.90;;
